Create Tblcommutelog Verified Points Advance Search
| # | Trip ID | Id Commuter | Trip Date | Trip Num | Current Lat | Current Lng | Delta Distance | Current Time | Activity | Activity Confidence | Current Speed | |
|---|---|---|---|---|---|---|---|---|---|---|---|---|
| 72241 | 250805_766077_16632982_1855 | 766077 | (not set) | (not set) | 38.816713886715 | -77.135754431223 | 8.4175 | 2025-08-05 19:09:36 | in_vehicle | 100 | 11.743721333608 | |
| 72242 | 250805_765830_16632736_1835 | 765830 | (not set) | (not set) | 38.928110792435 | -77.201314382066 | 10.5252 | 2025-08-05 19:10:39 | in_vehicle | 100 | 7.3493254177582 | |
| 72243 | 250805_765830_16632736_1835 | 765830 | (not set) | (not set) | 38.928110792435 | -77.201314382066 | 10.5252 | 2025-08-05 19:10:39 | in_vehicle | 100 | 7.3493254177582 | |
| 72244 | 250805_766077_16632982_1855 | 766077 | (not set) | (not set) | 38.801467849687 | -77.164939728866 | 10.3272 | 2025-08-05 19:11:31 | in_vehicle | 100 | 11.399501104187 | |
| 72245 | 250805_766077_16632982_1855 | 766077 | (not set) | (not set) | 38.798287121052 | -77.198146608316 | 12.4381 | 2025-08-05 19:13:45 | in_vehicle | 100 | 10.55012651211 | |
| 72246 | 250805_765830_16632736_1835 | 765830 | (not set) | (not set) | 38.924531055406 | -77.208087238626 | 11.2624 | 2025-08-05 19:15:43 | on_foot | 100 | 0.50515436265613 | |
| 72247 | 250805_765830_16632736_1835 | 765830 | (not set) | (not set) | 38.924531055406 | -77.208087238626 | 11.2624 | 2025-08-05 19:15:43 | on_foot | 100 | 0.50515436265613 | |
| 72248 | 250805_766077_16632982_1855 | 766077 | (not set) | (not set) | 38.810988231598 | -77.224664362219 | 14.2789 | 2025-08-05 19:17:48 | in_vehicle | 100 | 3.6254883903904 | |
| 72249 | 250805_766077_16632982_1855 | 766077 | (not set) | (not set) | 38.800221008145 | -77.220332531718 | 15.0842 | 2025-08-05 19:19:40 | in_vehicle | 100 | 3.4779654349245 | |
| 72250 | 250805_766077_16632982_1855 | 766077 | (not set) | (not set) | 38.800221008145 | -77.220332531718 | 15.0842 | 2025-08-05 19:19:40 | in_vehicle | 100 | 3.4779654349245 | |
| 72251 | 250805_766543_16633448_2009 | 766543 | (not set) | (not set) | 38.907211516089 | -77.003251025525 | 0 | 2025-08-05 20:09:58 | still | 33 | 0.72867399214999 | |
| 72252 | 250805_766543_16633448_2009 | 766543 | (not set) | (not set) | 38.922032229747 | -76.995454159739 | 1.1259 | 2025-08-05 20:13:01 | in_vehicle | 100 | 5.6550466261947 | |
| 72253 | 250805_766543_16633448_2009 | 766543 | (not set) | (not set) | 38.922032229747 | -76.995454159739 | 1.1259 | 2025-08-05 20:13:01 | in_vehicle | 100 | 5.6550466261947 | |
| 72254 | 250805_783402_16651135_1646 | 783402 | (not set) | (not set) | 39.1702133 | -76.8431911 | 35.4063 | 2025-08-05 18:16:12 | in_vehicle | 100 | 13.366473843733 | |
| 72255 | 250805_783402_16651135_1646 | 783402 | (not set) | (not set) | 39.2144444 | -76.8872177 | 40.622 | 2025-08-05 18:22:25 | in_vehicle | 100 | 3.241034627661 | |
| 72256 | 250805_783402_16651135_1646 | 783402 | (not set) | (not set) | 39.2372888 | -76.8948533 | 42.5381 | 2025-08-05 18:28:04 | in_vehicle | 100 | 7.1302761808542 | |
| 72257 | 250805_771304_16638458_1819 | 771304 | (not set) | (not set) | 38.898038198347 | -77.007339139722 | 2.811 | 2025-08-05 18:44:15 | unknown | 100 | -0.44703925898772 | |
| 72258 | 250805_783490_16651223_1819 | 783490 | (not set) | (not set) | 38.922319267913 | -77.221911912856 | 1.9351 | 2025-08-05 18:45:03 | in_vehicle | 100 | 2.2754298282475 | |
| 72259 | 250805_776618_16644147_1807 | 776618 | (not set) | (not set) | 38.882426461194 | -77.107633394436 | 7.613 | 2025-08-05 18:46:24 | in_vehicle | 100 | 2.3201337541463 | |
| 72260 | 250805_771304_16638458_1819 | 771304 | (not set) | (not set) | 38.907688117166 | -77.003396980581 | 3.5196 | 2025-08-05 18:47:53 | unknown | 100 | 0.37551297754969 |